Terminal Aerodrome Forecast
Issued by NWS Goodland, KS

Home | Current Version | Previous Version | Text Only | Print | Product List | Glossary On
Versions: 1 2 3 4 5 6 7 8 9 10 11 12 13 14 15
510
FTUS43 KGLD 081127
TAFGLD
TAF
KGLD 081127Z 0812/0912 27010KT P6SM SKC
     FM081700 32008KT P6SM FEW200
     FM082300 VRB04KT P6SM FEW200
     FM090300 17011KT P6SM BKN200=

USA.gov is the U.S. government's official web portal to all federal, state and local government web resources and services.